Time;durP1;ratioP1;P1;durP2;ratioP2;P2;SDS_P1;SDS_P2;PMS_P1;PMS_P2;Temp;Humidity;BMP_temperature;BMP_pressure;BME280_temperature;BME280_humidity;BME280_pressure;Samples;Min_cycle;Max_cycle;Signal;HPM_P1;HPM_P2
2021/07/12 00:01:39;;;;;;;4.50;3.15;;;;;;;;;;4971273;28;20114;-75
2021/07/12 00:04:05;;;;;;;6.15;2.83;;;;;;;;;;4972566;28;20031;-76
2021/07/12 00:06:31;;;;;;;4.32;2.53;;;;;;;;;;4973172;28;20019;-73
2021/07/12 00:08:57;;;;;;;5.95;3.15;;;;;;;;;;4975144;28;20077;-76
2021/07/12 00:11:23;;;;;;;4.38;2.75;;;;;;;;;;4975479;28;20421;-76
2021/07/12 00:13:51;;;;;;;5.82;3.03;;;;;;;;;;4975886;28;20030;-76
2021/07/12 00:16:17;;;;;;;8.70;3.22;;;;;;;;;;4975933;28;20046;-75
2021/07/12 00:18:43;;;;;;;4.57;2.70;;;;;;;;;;4975600;28;20035;-76
2021/07/12 00:21:09;;;;;;;4.82;3.05;;;;;;;;;;4974868;28;20026;-76
2021/07/12 00:23:35;;;;;;;4.88;2.97;;;;;;;;;;4975553;28;20027;-76
2021/07/12 00:26:03;;;;;;;3.40;3.08;;;;;;;;;;4975449;28;20046;-75
2021/07/12 00:28:29;;;;;;;5.72;2.90;;;;;;;;;;4970616;28;20070;-75
2021/07/12 00:30:55;;;;;;;4.20;2.65;;;;;;;;;;4970345;28;20030;-76
2021/07/12 00:33:21;;;;;;;4.60;2.90;;;;;;;;;;4956096;29;20027;-75
2021/07/12 00:35:47;;;;;;;5.40;2.47;;;;;;;;;;4956086;29;20031;-75
2021/07/12 00:38:13;;;;;;;2.90;2.42;;;;;;;;;;4970708;28;20094;-76
2021/07/12 00:40:39;;;;;;;3.78;2.60;;;;;;;;;;4969992;28;20030;-76
2021/07/12 00:43:06;;;;;;;4.25;2.67;;;;;;;;;;4955791;29;20078;-75
2021/07/12 00:45:32;;;;;;;8.00;3.13;;;;;;;;;;4956053;29;20051;-75
2021/07/12 00:47:58;;;;;;;5.43;2.33;;;;;;;;;;4955900;29;20512;-76
2021/07/12 00:50:28;;;;;;;4.82;2.50;;;;;;;;;;4954906;28;20664;-75
2021/07/12 00:52:54;;;;;;;3.45;2.60;;;;;;;;;;4956042;29;20062;-75
2021/07/12 00:55:28;;;;;;;5.00;2.20;;;;;;;;;;4955913;29;20024;-75
2021/07/12 00:57:54;;;;;;;4.95;2.50;;;;;;;;;;4973305;28;20033;-75
2021/07/12 01:00:21;;;;;;;4.85;2.50;;;;;;;;;;4974470;28;20027;-75
2021/07/12 01:02:47;;;;;;;5.90;2.90;;;;;;;;;;4974749;28;20042;-76
2021/07/12 01:05:16;;;;;;;6.43;2.50;;;;;;;;;;4974656;28;20038;-75
2021/07/12 01:07:42;;;;;;;3.20;2.53;;;;;;;;;;4974808;28;20019;-75
2021/07/12 01:10:08;;;;;;;5.60;2.40;;;;;;;;;;4973131;28;20019;-74
2021/07/12 01:12:39;;;;;;;3.35;2.47;;;;;;;;;;4974442;28;20018;-74
2021/07/12 01:15:18;;;;;;;3.05;2.13;;;;;;;;;;4974541;28;20399;-74
2021/07/12 01:17:56;;;;;;;3.42;2.30;;;;;;;;;;4974100;28;20120;-74
2021/07/12 01:20:35;;;;;;;6.55;2.58;;;;;;;;;;4974038;28;20033;-74
2021/07/12 01:23:13;;;;;;;4.45;2.25;;;;;;;;;;4974396;28;20019;-74
2021/07/12 01:25:57;;;;;;;4.45;2.45;;;;;;;;;;4972979;28;20034;-74
2021/07/12 01:28:35;;;;;;;5.38;2.58;;;;;;;;;;4974362;28;20404;-74
2021/07/12 01:31:01;;;;;;;5.13;2.65;;;;;;;;;;4973842;28;20022;-74
2021/07/12 01:33:32;;;;;;;6.13;2.53;;;;;;;;;;4974270;28;20114;-74
2021/07/12 01:36:05;;;;;;;4.88;2.28;;;;;;;;;;4974289;28;20030;-75
2021/07/12 01:38:39;;;;;;;6.05;2.60;;;;;;;;;;4974234;28;20023;-75
2021/07/12 01:41:06;;;;;;;6.90;2.85;;;;;;;;;;4973528;28;20487;-74
2021/07/12 01:43:55;;;;;;;5.00;2.60;;;;;;;;;;4975102;28;20027;-74
2021/07/12 01:46:26;;;;;;;4.88;2.85;;;;;;;;;;4947279;28;20063;-74
2021/07/12 01:49:08;;;;;;;5.13;2.80;;;;;;;;;;4974019;28;20054;-74
2021/07/12 01:52:06;;;;;;;5.78;3.20;;;;;;;;;;4954609;28;20028;-74
2021/07/12 01:54:41;;;;;;;4.90;2.75;;;;;;;;;;4944400;28;20032;-75
2021/07/12 01:57:08;;;;;;;5.38;3.17;;;;;;;;;;4981005;28;20027;-75
2021/07/12 01:59:37;;;;;;;3.45;2.70;;;;;;;;;;4962829;29;20043;-73
2021/07/12 02:02:05;;;;;;;9.70;3.38;;;;;;;;;;4959563;28;20055;-75
2021/07/12 02:04:32;;;;;;;8.35;3.20;;;;;;;;;;4969355;28;20118;-76
2021/07/12 02:06:58;;;;;;;6.53;3.08;;;;;;;;;;4954435;28;20101;-75
2021/07/12 02:09:25;;;;;;;6.82;3.50;;;;;;;;;;4953634;28;20099;-75
2021/07/12 02:11:52;;;;;;;5.30;3.10;;;;;;;;;;4953927;28;20027;-76
2021/07/12 02:14:19;;;;;;;5.43;3.28;;;;;;;;;;4954317;28;20032;-76
2021/07/12 02:16:45;;;;;;;5.93;3.22;;;;;;;;;;4954185;28;20073;-76
2021/07/12 02:19:11;;;;;;;9.05;4.10;;;;;;;;;;4953489;28;20039;-75
2021/07/12 02:21:39;;;;;;;8.85;4.10;;;;;;;;;;4953999;28;20031;-76
2021/07/12 02:24:05;;;;;;;7.85;4.80;;;;;;;;;;4953934;28;20032;-75
2021/07/12 02:26:32;;;;;;;7.63;3.78;;;;;;;;;;4960555;28;20070;-75
2021/07/12 02:29:01;;;;;;;5.05;3.10;;;;;;;;;;4963203;28;20046;-76
2021/07/12 02:31:28;;;;;;;7.72;3.70;;;;;;;;;;4953049;28;20023;-76
2021/07/12 02:33:54;;;;;;;4.63;3.17;;;;;;;;;;4968690;28;20035;-76
2021/07/12 02:36:20;;;;;;;8.38;3.53;;;;;;;;;;4953909;29;20042;-75
2021/07/12 02:38:48;;;;;;;4.95;3.15;;;;;;;;;;4953844;29;20061;-75
2021/07/12 02:41:14;;;;;;;5.82;3.47;;;;;;;;;;4953112;28;20036;-75
2021/07/12 02:43:41;;;;;;;7.32;3.47;;;;;;;;;;4953647;29;20038;-75
2021/07/12 02:46:07;;;;;;;7.38;3.40;;;;;;;;;;4968585;28;20102;-75
2021/07/12 02:48:34;;;;;;;6.10;3.50;;;;;;;;;;4968429;28;20504;-75
2021/07/12 02:51:02;;;;;;;5.05;3.70;;;;;;;;;;4952570;28;20047;-75
2021/07/12 02:53:32;;;;;;;6.95;3.65;;;;;;;;;;4953765;29;20085;-75
2021/07/12 02:55:59;;;;;;;5.75;4.10;;;;;;;;;;4955737;28;20024;-76
2021/07/12 02:58:25;;;;;;;9.93;4.40;;;;;;;;;;4972917;28;20027;-75
2021/07/12 03:00:51;;;;;;;4.90;4.15;;;;;;;;;;4972169;28;20019;-75
2021/07/12 03:03:17;;;;;;;7.68;4.47;;;;;;;;;;4972827;28;20446;-75
2021/07/12 03:05:43;;;;;;;6.32;3.80;;;;;;;;;;4972596;28;20038;-76
2021/07/12 03:08:11;;;;;;;8.20;4.10;;;;;;;;;;4972698;28;20477;-75
2021/07/12 03:10:50;;;;;;;7.00;3.95;;;;;;;;;;4970849;28;20027;-75
2021/07/12 03:13:18;;;;;;;6.32;3.80;;;;;;;;;;4971318;28;20029;-75
2021/07/12 03:15:47;;;;;;;6.88;3.80;;;;;;;;;;4972712;28;20543;-76
2021/07/12 03:18:19;;;;;;;5.85;4.50;;;;;;;;;;4972560;28;20563;-76
2021/07/12 03:20:46;;;;;;;5.78;4.55;;;;;;;;;;4972019;28;20058;-76
2021/07/12 03:23:13;;;;;;;6.30;5.22;;;;;;;;;;4972517;28;20058;-75
2021/07/12 03:25:42;;;;;;;10.55;5.20;;;;;;;;;;4972591;28;20030;-76
2021/07/12 03:28:08;;;;;;;9.15;4.80;;;;;;;;;;4972391;28;20027;-75
2021/07/12 03:30:36;;;;;;;10.20;4.40;;;;;;;;;;4970574;28;20403;-75
2021/07/12 03:33:02;;;;;;;6.90;4.43;;;;;;;;;;4972382;28;20019;-75
2021/07/12 03:35:36;;;;;;;6.72;4.60;;;;;;;;;;4972565;28;20492;-75
2021/07/12 03:38:03;;;;;;;8.48;4.32;;;;;;;;;;4972563;28;20484;-75
2021/07/12 03:40:29;;;;;;;7.85;4.22;;;;;;;;;;4971926;28;20031;-75
2021/07/12 03:42:55;;;;;;;7.85;4.68;;;;;;;;;;4974582;28;20027;-77
2021/07/12 03:45:21;;;;;;;7.95;4.35;;;;;;;;;;4975798;28;20023;-77
2021/07/12 03:47:50;;;;;;;11.68;4.85;;;;;;;;;;4977428;28;20105;-77
2021/07/12 03:50:17;;;;;;;8.45;4.75;;;;;;;;;;4976323;28;20069;-77
2021/07/12 03:52:50;;;;;;;9.23;4.55;;;;;;;;;;4975358;28;20046;-77
2021/07/12 03:55:18;;;;;;;10.27;4.28;;;;;;;;;;4976538;28;20190;-77
2021/07/12 03:57:44;;;;;;;6.95;4.20;;;;;;;;;;4976568;28;20042;-78
2021/07/12 04:00:12;;;;;;;7.07;4.03;;;;;;;;;;4975827;28;20484;-77
2021/07/12 04:02:38;;;;;;;9.63;4.40;;;;;;;;;;4961313;28;20027;-76
2021/07/12 04:05:05;;;;;;;5.82;3.60;;;;;;;;;;4956363;29;20030;-76
2021/07/12 04:07:31;;;;;;;6.97;4.03;;;;;;;;;;4957110;29;20030;-77
2021/07/12 04:09:57;;;;;;;7.50;3.70;;;;;;;;;;4971554;28;20075;-78
2021/07/12 04:12:24;;;;;;;6.20;4.10;;;;;;;;;;4970402;28;20122;-80
2021/07/12 04:14:54;;;;;;;6.20;3.90;;;;;;;;;;4973869;28;20023;-78
2021/07/12 04:17:20;;;;;;;8.38;3.70;;;;;;;;;;4961641;29;20035;-79
2021/07/12 04:19:47;;;;;;;4.90;3.40;;;;;;;;;;4975147;28;20032;-79
2021/07/12 04:22:13;;;;;;;6.25;3.80;;;;;;;;;;4960338;28;20267;-78
2021/07/12 04:24:39;;;;;;;8.27;3.88;;;;;;;;;;4974455;28;20035;-77
2021/07/12 04:27:05;;;;;;;7.78;3.33;;;;;;;;;;4970419;28;20034;-78
2021/07/12 04:29:31;;;;;;;7.65;3.47;;;;;;;;;;4980168;28;20023;-78
2021/07/12 04:32:00;;;;;;;5.82;3.28;;;;;;;;;;4977162;28;20035;-78
2021/07/12 04:34:26;;;;;;;15.45;4.63;;;;;;;;;;4998727;23;20062;-76
2021/07/12 04:36:52;;;;;;;8.60;3.00;;;;;;;;;;4962070;28;20103;-76
2021/07/12 04:39:18;;;;;;;5.25;3.45;;;;;;;;;;4955942;28;20063;-77
2021/07/12 04:41:44;;;;;;;7.22;3.05;;;;;;;;;;4973733;28;20114;-76
2021/07/12 04:44:10;;;;;;;5.88;3.22;;;;;;;;;;4974556;28;20058;-76
2021/07/12 04:46:36;;;;;;;4.95;2.60;;;;;;;;;;4973178;28;20063;-75
2021/07/12 04:49:03;;;;;;;5.47;2.92;;;;;;;;;;4956422;28;20033;-76
2021/07/12 04:51:30;;;;;;;4.22;2.50;;;;;;;;;;4973157;28;20019;-76
2021/07/12 04:53:56;;;;;;;6.05;3.08;;;;;;;;;;4955635;28;20131;-77
2021/07/12 04:56:22;;;;;;;4.47;2.75;;;;;;;;;;4968812;28;20062;-77
2021/07/12 04:58:48;;;;;;;5.22;2.30;;;;;;;;;;4953441;29;20063;-76
2021/07/12 05:01:15;;;;;;;7.82;3.08;;;;;;;;;;4954727;29;20078;-77
2021/07/12 05:03:41;;;;;;;12.55;4.28;;;;;;;;;;4954532;28;20031;-77
2021/07/12 05:06:07;;;;;;;5.68;2.67;;;;;;;;;;4955197;29;20055;-77
2021/07/12 05:08:33;;;;;;;5.47;2.45;;;;;;;;;;4953669;28;20035;-77
2021/07/12 05:11:00;;;;;;;3.13;2.35;;;;;;;;;;4954579;28;20027;-76
2021/07/12 05:13:26;;;;;;;4.70;2.20;;;;;;;;;;4954621;28;20038;-76
2021/07/12 05:15:52;;;;;;;4.50;2.65;;;;;;;;;;4953872;29;20448;-77
2021/07/12 05:18:18;;;;;;;3.15;2.20;;;;;;;;;;4954786;29;20166;-76
2021/07/12 05:20:44;;;;;;;2.88;2.15;;;;;;;;;;4953335;29;20126;-76
2021/07/12 05:23:10;;;;;;;5.18;2.63;;;;;;;;;;4953352;28;20023;-76
2021/07/12 05:25:36;;;;;;;3.40;2.30;;;;;;;;;;4954588;29;20550;-76
2021/07/12 05:28:02;;;;;;;3.88;2.17;;;;;;;;;;4973337;28;20049;-76
2021/07/12 05:30:28;;;;;;;3.55;2.30;;;;;;;;;;4973124;28;20171;-77
2021/07/12 05:32:54;;;;;;;5.18;2.05;;;;;;;;;;4973680;28;20121;-77
2021/07/12 05:35:20;;;;;;;3.65;2.30;;;;;;;;;;4956662;28;20484;-74
2021/07/12 05:37:46;;;;;;;4.43;2.22;;;;;;;;;;4973636;28;20031;-74
2021/07/12 05:40:12;;;;;;;5.30;2.20;;;;;;;;;;4971755;28;20066;-72
2021/07/12 05:42:38;;;;;;;5.22;2.15;;;;;;;;;;4973397;28;20034;-72
2021/07/12 05:45:04;;;;;;;3.47;2.00;;;;;;;;;;4973174;28;20117;-74
2021/07/12 05:47:30;;;;;;;3.50;1.90;;;;;;;;;;4973318;28;20029;-73
2021/07/12 05:49:56;;;;;;;4.25;1.90;;;;;;;;;;4973056;28;20023;-74
2021/07/12 05:52:22;;;;;;;4.07;1.98;;;;;;;;;;4973177;28;20031;-73
2021/07/12 05:54:48;;;;;;;2.80;1.85;;;;;;;;;;4973324;28;20034;-75
2021/07/12 05:57:14;;;;;;;5.18;2.10;;;;;;;;;;4972695;28;20399;-74
2021/07/12 05:59:40;;;;;;;4.13;2.45;;;;;;;;;;4963042;28;20037;-75
2021/07/12 06:02:07;;;;;;;3.78;1.73;;;;;;;;;;4979513;28;20043;-74
2021/07/12 06:04:33;;;;;;;1.90;1.58;;;;;;;;;;4972670;28;20049;-73
2021/07/12 06:06:59;;;;;;;3.33;1.60;;;;;;;;;;4939514;28;20027;-74
2021/07/12 06:09:25;;;;;;;3.53;2.08;;;;;;;;;;4972128;28;20035;-73
2021/07/12 06:11:51;;;;;;;5.90;1.85;;;;;;;;;;4972958;28;20019;-73
2021/07/12 06:14:17;;;;;;;5.72;1.80;;;23.00;91.20;;;;;;4960426;28;20408;-74
2021/07/12 06:16:42;;;;;;;4.47;1.85;;;19.20;99.90;;;;;;4954074;29;20102;-74
2021/07/12 06:19:08;;;;;;;3.97;2.30;;;;;;;;;;4962768;28;20122;-72
2021/07/12 06:21:34;;;;;;;4.03;1.60;;;;;;;;;;4972849;28;20030;-75
2021/07/12 06:24:00;;;;;;;3.85;1.42;;;;;;;;;;4972605;28;20062;-73
2021/07/12 06:26:26;;;;;;;2.33;1.58;;;;;;;;;;4962663;28;20031;-72
2021/07/12 06:28:52;;;;;;;3.08;1.58;;;;;;;;;;4960163;28;20090;-73
2021/07/12 06:31:18;;;;;;;5.90;1.75;;;;;;;;;;4955158;28;20031;-74
2021/07/12 06:33:44;;;;;;;2.88;1.40;;;;;;;;;;4967114;28;20039;-74
2021/07/12 06:36:11;;;;;;;2.95;1.45;;;;;;;;;;4953083;29;20427;-76
2021/07/12 06:38:36;;;;;;;5.25;1.50;;;;;;;;;;4952764;28;20066;-74
2021/07/12 06:41:02;;;;;;;3.30;1.50;;;;;;;;;;4952350;29;20125;-75
2021/07/12 06:43:29;;;;;;;3.72;1.35;;;;;;;;;;4951377;29;20472;-76
2021/07/12 06:45:56;;;;;;;2.80;1.48;;;;;;;;;;4951691;28;20444;-74
2021/07/12 06:48:22;;;;;;;7.72;1.50;;;;;;;;;;4951941;28;20027;-74
2021/07/12 06:50:48;;;;;;;3.38;1.30;;;;;;;;;;4952254;28;20121;-74
2021/07/12 06:53:14;;;;;;;11.27;2.20;;;;;;;;;;4967206;28;20479;-75
2021/07/12 06:55:40;;;;;;;2.90;1.27;;;;;;;;;;4972069;28;20098;-75
2021/07/12 06:58:10;;;;;;;3.30;1.27;;;;;;;;;;4971768;28;20031;-76
2021/07/12 07:00:36;;;;;;;1.73;1.27;;;;;;;;;;4971909;28;20023;-75
2021/07/12 07:03:02;;;;;;;2.55;1.23;;;;;;;;;;4972378;28;20030;-73
2021/07/12 07:05:28;;;;;;;3.10;1.15;;;;;;;;;;4971849;28;20455;-74
2021/07/12 07:07:54;;;;;;;1.50;1.20;;;;;;;;;;4972346;28;20039;-74
2021/07/12 07:10:21;;;;;;;3.08;1.27;;;;;;;;;;4964712;28;20077;-74
2021/07/12 07:12:47;;;;;;;2.85;1.25;;;;;;;;;;4988979;28;20027;-74
2021/07/12 07:15:13;;;;;;;4.38;1.38;;;;;;;;;;4975745;28;20096;-73
2021/07/12 07:17:39;;;;;;;3.60;1.20;;;;;;;;;;4998813;28;20157;-74
2021/07/12 07:20:06;;;;;;;2.60;1.20;;;;;;;;;;4995236;28;20058;-74
2021/07/12 07:22:32;;;;;;;4.38;1.75;;;;;;;;;;4975646;28;20474;-75
2021/07/12 07:24:58;;;;;;;3.00;1.08;;;;;;;;;;4955501;29;20555;-75
2021/07/12 07:27:24;;;;;;;2.33;1.10;;;;;;;;;;4956441;28;20463;-74
2021/07/12 07:29:50;;;;;;;3.22;1.05;;;;;;;;;;4956133;29;20039;-74
2021/07/12 07:32:16;;;;;;;4.22;1.00;;;;;;;;;;4955236;29;20030;-74
2021/07/12 07:34:44;;;;;;;2.60;1.10;;;;;;;;;;4957749;28;20102;-73
2021/07/12 07:37:11;;;;;;;3.88;1.38;;;;;;;;;;4955623;29;20496;-72
2021/07/12 07:39:37;;;;;;;2.92;1.08;;;;;;;;;;4956389;29;20042;-74
2021/07/12 07:42:04;;;;;;;2.03;1.00;;;;;;;;;;4956267;28;20027;-72
2021/07/12 07:44:30;;;;;;;6.45;1.20;;;;;;;;;;4956314;29;20063;-72
2021/07/12 07:46:56;;;;;;;24.85;2.15;;;;;;;;;;4956281;28;20034;-72
2021/07/12 07:49:22;;;;;;;1.92;0.85;;;;;;;;;;4955079;28;20039;-72
2021/07/12 07:51:48;;;;;;;4.65;0.95;;;;;;;;;;4954377;28;20031;-72
2021/07/12 07:54:14;;;;;;;4.25;1.10;;;;;;;;;;4955790;29;20407;-72
2021/07/12 07:56:40;;;;;;;3.47;1.02;;;;;;;;;;4955866;29;20481;-72
2021/07/12 07:59:06;;;;;;;5.65;1.10;;;;;;;;;;4954979;28;20035;-72
2021/07/12 08:01:33;;;;;;;2.55;1.10;;;;;;;;;;4955968;29;20074;-73
2021/07/12 08:03:59;;;;;;;1.48;1.08;;;;;;;;;;4955932;29;20031;-73
2021/07/12 08:06:25;;;;;;;4.43;0.90;;;;;;;;;;4955053;29;20350;-73
2021/07/12 08:08:51;;;;;;;2.30;1.08;;;;;;;;;;4954576;29;20077;-73
2021/07/12 08:11:17;;;;;;;2.35;0.90;;;;;;;;;;4956418;29;20098;-73
2021/07/12 08:13:43;;;;;;;3.80;1.17;;;;;;;;;;4955695;28;20027;-73
2021/07/12 08:16:09;;;;;;;1.73;0.70;;;;;;;;;;4956105;28;20128;-73
2021/07/12 08:18:36;;;;;;;4.75;1.48;;;;;;;;;;4955937;28;20039;-74
2021/07/12 08:21:02;;;;;;;3.05;1.08;;;;;;;;;;4955545;28;20030;-73
2021/07/12 08:23:28;;;;;;;4.40;0.98;;;;;;;;;;4972070;28;20039;-73
2021/07/12 08:25:54;;;;;;;1.38;0.80;;;;;;;;;;4975097;28;20376;-74
2021/07/12 08:28:24;;;;;;;3.20;0.90;;;;;;;;;;4974654;28;20031;-74
2021/07/12 08:30:50;;;;;;;2.65;0.80;;;;;;;;;;4974353;28;20054;-73
2021/07/12 08:33:16;;;;;;;10.38;1.13;;;;;;;;;;4974567;28;20031;-73
2021/07/12 08:35:42;;;;;;;1.80;0.90;;;;;;;;;;4974706;28;20030;-74
2021/07/12 08:38:08;;;;;;;8.25;1.42;;;;;;;;;;4974951;28;20046;-73
2021/07/12 08:40:35;;;;;;;3.03;1.00;;;;;;;;;;4974095;28;20023;-72
2021/07/12 08:43:01;;;;;;;2.17;1.17;;;;;;;;;;4974321;28;20042;-73
2021/07/12 08:45:28;;;;;;;3.08;0.80;;;;;;;;;;4974566;28;20400;-72
2021/07/12 08:47:54;;;;;;;5.32;1.20;;;;;;;;;;4973439;28;20038;-73
2021/07/12 08:50:21;;;;;;;1.80;1.00;;;;;;;;;;4974027;28;20022;-73
2021/07/12 08:52:48;;;;;;;2.85;1.00;;;;;;;;;;4974430;28;20038;-73
2021/07/12 08:55:15;;;;;;;2.88;1.27;;;;;;;;;;4968462;28;20181;-72
2021/07/12 08:57:41;;;;;;;3.63;1.17;;;;;;;;;;4972520;28;20372;-73
2021/07/12 09:00:09;;;;;;;9.27;1.42;;;;;;;;;;4973749;28;20033;-72
2021/07/12 09:02:37;;;;;;;6.18;1.27;;;;;;;;;;4973671;28;20623;-72
2021/07/12 09:05:07;;;;;;;20.75;1.95;;;;;;;;;;4974109;28;20498;-73
2021/07/12 09:07:34;;;;;;;3.65;1.17;;;;;;;;;;4974178;28;20115;-73
2021/07/12 09:10:09;;;;;;;2.60;1.10;;;;;;;;;;4973412;28;20073;-76
2021/07/12 09:12:52;;;;;;;3.30;1.08;;;;;;;;;;4973761;28;20069;-74
2021/07/12 09:15:19;;;;;;;2.38;1.35;;;;;;;;;;4956622;28;20121;-74
2021/07/12 09:17:46;;;;;;;1.45;1.05;;;;;;;;;;4974068;28;20035;-75
2021/07/12 09:20:22;;;;;;;12.10;1.38;;;;;;;;;;4973445;28;20034;-75
2021/07/12 09:22:48;;;;;;;3.05;1.33;;;;;;;;;;4974274;28;20408;-75
2021/07/12 09:25:14;;;;;;;1.30;0.90;;;;;;;;;;4973915;28;20035;-75
2021/07/12 09:27:41;;;;;;;2.35;0.90;;;;;;;;;;4973420;28;20061;-75
2021/07/12 09:30:09;;;;;;;3.30;0.90;;;;;;;;;;4973084;28;20022;-74
2021/07/12 09:32:36;;;;;;;3.13;1.30;;;;;;;;;;4971969;28;20027;-75
2021/07/12 09:35:06;;;;;;;2.38;1.02;;;;;;;;;;4973809;28;20484;-75
2021/07/12 09:37:32;;;;;;;1.38;1.00;;;;;;;;;;4973777;28;20031;-74
2021/07/12 09:39:59;;;;;;;4.55;1.10;;;;;;;;;;4971539;28;20034;-75
2021/07/12 09:42:26;;;;;;;2.08;0.80;;;;;;;;;;4972552;28;20030;-75
2021/07/12 09:44:53;;;;;;;3.63;1.15;;;;;;;;;;4956321;28;20566;-74
2021/07/12 09:47:21;;;;;;;4.00;1.30;;;;;;;;;;4972501;28;20042;-75
2021/07/12 09:49:47;;;;;;;2.47;0.90;;;;;;;;;;4971642;28;20499;-74
2021/07/12 09:52:18;;;;;;;3.22;1.05;;;;;;;;;;4973083;28;20047;-74
2021/07/12 09:54:46;;;;;;;3.08;1.00;;;;;;;;;;4973460;28;20039;-75
2021/07/12 09:57:16;;;;;;;3.70;1.27;;;;;;;;;;4973133;28;20089;-75
2021/07/12 10:00:04;;;;;;;1.13;0.80;;;;;;;;;;4972190;28;20105;-74
2021/07/12 10:02:32;;;;;;;1.38;0.75;;;19.20;99.90;;;;;;4973088;28;20027;-75
2021/07/12 10:05:10;;;;;;;1.92;1.00;;;29.10;88.10;;;;;;4973014;28;20400;-75
2021/07/12 10:07:38;;;;;;;1.58;1.00;;;29.00;89.90;;;;;;4973077;28;20098;-75
2021/07/12 10:10:08;;;;;;;1.70;1.10;;;29.10;90.10;;;;;;4972417;28;20034;-74
2021/07/12 10:12:34;;;;;;;1.10;1.00;;;29.00;87.80;;;;;;4972913;28;20038;-75
2021/07/12 10:15:00;;;;;;;3.08;1.00;;;29.20;87.20;;;;;;4972886;28;20042;-74
2021/07/12 10:17:26;;;;;;;1.80;1.02;;;29.40;88.60;;;;;;4973192;28;20035;-74
2021/07/12 10:19:51;;;;;;;1.55;1.02;;;29.40;87.10;;;;;;4972404;28;20113;-75
2021/07/12 10:22:22;;;;;;;5.47;1.10;;;29.50;88.00;;;;;;4972515;28;20026;-75
2021/07/12 10:24:48;;;;;;;4.15;1.17;;;29.40;87.10;;;;;;4971615;28;20377;-75
2021/07/12 10:27:22;;;;;;;1.40;1.17;;;29.10;85.60;;;;;;4972499;28;20027;-75
2021/07/12 10:29:49;;;;;;;4.57;1.02;;;28.70;86.80;;;;;;4972088;28;20033;-75
2021/07/12 10:32:19;;;;;;;1.23;1.00;;;28.90;85.90;;;;;;4972529;28;20427;-75
2021/07/12 10:34:52;;;;;;;2.45;1.02;;;29.40;86.00;;;;;;4982825;23;20101;-83
2021/07/12 10:37:30;;;;;;;1.95;0.80;;;30.00;83.70;;;;;;4969810;28;20034;-80
2021/07/12 10:40:04;;;;;;;1.75;0.95;;;30.60;82.40;;;;;;4978773;28;20031;-82
2021/07/12 10:42:43;;;;;;;2.17;1.10;;;30.60;80.90;;;;;;4979749;28;20037;-81
2021/07/12 10:45:48;;;;;;;1.15;0.80;;;30.80;79.70;;;;;;4990291;28;20030;-79
2021/07/12 10:48:15;;;;;;;3.20;1.00;;;31.30;79.30;;;;;;4921324;29;20039;-79
2021/07/12 10:50:46;;;;;;;2.45;1.00;;;31.40;77.00;;;;;;4977286;28;20509;-82
2021/07/12 10:53:15;;;;;;;1.87;1.20;;;31.60;75.90;;;;;;4942552;29;20045;-82
2021/07/12 10:55:46;;;;;;;1.85;1.00;;;31.70;77.20;;;;;;4938942;29;20054;-80
2021/07/12 10:58:26;;;;;;;2.38;1.23;;;32.10;77.00;;;;;;4938106;29;20040;-80
2021/07/12 11:00:55;;;;;;;3.83;0.80;;;32.40;73.80;;;;;;4938907;29;20078;-79
2021/07/12 11:03:46;;;;;;;1.77;1.10;;;32.10;74.00;;;;;;4939561;29;20508;-80
2021/07/12 11:06:24;;;;;;;1.80;0.88;;;32.50;72.30;;;;;;4939513;29;20043;-80
2021/07/12 11:08:52;;;;;;;1.83;0.90;;;32.70;71.90;;;;;;4939189;29;20039;-80
2021/07/12 11:11:18;;;;;;;3.65;1.15;;;32.70;71.30;;;;;;4939617;29;20031;-80
2021/07/12 11:13:58;;;;;;;0.98;0.82;;;32.30;70.50;;;;;;4958887;28;20030;-80
2021/07/12 11:16:37;;;;;;;5.43;1.10;;;32.00;70.70;;;;;;4957112;29;20114;-82
2021/07/12 11:19:25;;;;;;;4.35;1.17;;;31.70;71.90;;;;;;4938799;29;20034;-82
2021/07/12 11:22:14;;;;;;;2.03;1.08;;;31.80;72.20;;;;;;4960163;29;20059;-82
2021/07/12 11:25:02;;;;;;;3.33;1.20;;;32.10;71.90;;;;;;4942217;29;20046;-82
2021/07/12 11:27:42;;;;;;;4.10;2.47;;;32.60;71.60;;;;;;4954492;29;20074;-82
2021/07/12 11:30:27;;;;;;;2.30;1.20;;;35.70;71.20;;;;;;4950891;28;20027;-82
2021/07/12 11:32:54;;;;;;;2.35;1.10;;;34.10;67.60;;;;;;4957045;28;20077;-82
2021/07/12 11:35:19;;;;;;;3.00;1.10;;;34.40;67.00;;;;;;4957804;29;20071;-82
2021/07/12 11:37:45;;;;;;;2.45;1.10;;;34.50;66.10;;;;;;4958795;29;20040;-82
2021/07/12 11:40:12;;;;;;;1.70;0.90;;;34.40;66.40;;;;;;4954850;28;20038;-82
2021/07/12 11:42:39;;;;;;;4.78;1.10;;;34.70;65.50;;;;;;4953682;28;20162;-82
2021/07/12 11:45:10;;;;;;;1.58;1.00;;;34.90;65.10;;;;;;4965613;28;20023;-81
2021/07/12 11:47:38;;;;;;;3.45;0.90;;;35.10;64.80;;;;;;4967341;28;20031;-82
2021/07/12 11:50:14;;;;;;;2.42;1.20;;;35.10;64.40;;;;;;4972948;29;20010;-81
2021/07/12 11:52:42;;;;;;;2.85;1.13;;;35.20;63.60;;;;;;4954043;29;20110;-80
2021/07/12 11:55:13;;;;;;;2.38;1.02;;;35.50;63.40;;;;;;4969515;29;20038;-79
2021/07/12 11:57:40;;;;;;;2.03;1.33;;;35.10;62.50;;;;;;4963362;29;20028;-79
2021/07/12 12:00:11;;;;;;;1.55;0.93;;;35.80;61.70;;;;;;4955868;29;20059;-81
2021/07/12 12:02:39;;;;;;;2.45;1.17;;;35.90;61.60;;;;;;4957016;28;20031;-81
2021/07/12 12:05:08;;;;;;;1.20;1.10;;;36.10;60.10;;;;;;4942955;29;20477;-81
2021/07/12 12:07:37;;;;;;;2.03;1.13;;;35.40;61.90;;;;;;4958393;29;20660;-80
2021/07/12 12:10:23;;;;;;;1.63;1.35;;;35.20;61.80;;;;;;4959277;29;20428;-80
2021/07/12 12:12:51;;;;;;;1.90;1.00;;;33.60;60.80;;;;;;4959570;29;20510;-80
2021/07/12 12:15:30;;;;;;;2.03;1.05;;;35.20;61.00;;;;;;4963765;28;20127;-80
2021/07/12 12:17:58;;;;;;;3.53;1.05;;;35.40;61.20;;;;;;4957196;29;20027;-81
2021/07/12 12:20:28;;;;;;;4.85;1.00;;;35.10;60.80;;;;;;4959011;29;20031;-80
2021/07/12 12:23:16;;;;;;;3.95;1.08;;;34.50;61.70;;;;;;4966572;28;20027;-80
2021/07/12 12:26:03;;;;;;;4.70;0.90;;;33.90;62.40;;;;;;4958554;29;20019;-80
2021/07/12 12:28:56;;;;;;;7.60;1.25;;;33.50;63.00;;;;;;4960472;28;20029;-80
2021/07/12 12:31:22;;;;;;;1.80;0.98;;;32.90;64.20;;;;;;4942333;29;20575;-80
2021/07/12 12:33:54;;;;;;;2.78;1.10;;;32.50;65.00;;;;;;4960087;29;20046;-79
2021/07/12 12:36:27;;;;;;;3.30;1.20;;;32.00;65.10;;;;;;4962454;29;20031;-81
2021/07/12 12:38:57;;;;;;;1.35;1.00;;;31.60;64.80;;;;;;4941024;29;20034;-80
2021/07/12 12:41:32;;;;;;;2.88;1.10;;;30.70;66.70;;;;;;4956824;28;20392;-79
2021/07/12 12:44:09;;;;;;;3.92;1.20;;;30.30;67.90;;;;;;4919934;28;20646;-79
2021/07/12 12:46:45;;;;;;;1.63;1.00;;;30.20;68.70;;;;;;4937380;29;20042;-79
2021/07/12 12:49:32;;;;;;;1.55;1.10;;;30.40;68.10;;;;;;4957645;29;20047;-79
2021/07/12 12:51:59;;;;;;;1.65;1.00;;;31.30;68.20;;;;;;4956711;29;20432;-79
2021/07/12 12:54:33;;;;;;;1.40;0.90;;;32.60;65.10;;;;;;4961775;28;20423;-79
2021/07/12 12:57:02;;;;;;;3.78;1.00;;;33.60;64.80;;;;;;4960982;29;20115;-80
2021/07/12 12:59:33;;;;;;;1.42;1.20;;;34.40;62.60;;;;;;4959664;29;20400;-79
2021/07/12 13:02:09;;;;;;;3.47;1.20;;;34.50;61.80;;;;;;4944230;29;20031;-80
2021/07/12 13:04:53;;;;;;;3.30;1.00;;;34.80;60.20;;;;;;4958709;29;20031;-80
2021/07/12 13:07:20;;;;;;;4.63;1.60;;;34.80;60.40;;;;;;4966106;28;20030;-80
2021/07/12 13:09:47;;;;;;;2.30;1.10;;;35.40;60.90;;;;;;4959187;29;20027;-80
2021/07/12 13:12:20;;;;;;;1.65;1.20;;;36.30;58.50;;;;;;4953666;29;20038;-79
2021/07/12 13:14:50;;;;;;;2.45;0.93;;;36.10;58.60;;;;;;4958254;28;20430;-80
2021/07/12 13:17:25;;;;;;;2.58;1.00;;;36.10;57.90;;;;;;4958429;29;20559;-80
2021/07/12 13:19:56;;;;;;;2.22;1.17;;;36.50;56.60;;;;;;4958785;29;20028;-79
2021/07/12 13:22:30;;;;;;;3.65;0.95;;;36.80;56.50;;;;;;4958821;29;20047;-80
2021/07/12 13:24:59;;;;;;;2.45;1.13;;;37.60;55.60;;;;;;4960002;28;20030;-80
2021/07/12 13:27:28;;;;;;;5.63;1.10;;;37.70;55.30;;;;;;4967233;29;20061;-80
2021/07/12 13:29:55;;;;;;;1.83;1.13;;;38.40;54.70;;;;;;4964445;29;20042;-80
2021/07/12 13:32:21;;;;;;;1.83;1.10;;;38.10;55.70;;;;;;4965785;29;20384;-80
2021/07/12 13:34:57;;;;;;;2.28;1.10;;;38.50;54.30;;;;;;4958303;29;20039;-80
2021/07/12 13:37:23;;;;;;;1.88;1.10;;;41.20;55.20;;;;;;4943377;29;20086;-80
2021/07/12 13:39:49;;;;;;;4.93;1.08;;;39.50;52.70;;;;;;4963694;29;20024;-80
2021/07/12 13:42:15;;;;;;;4.47;1.30;;;38.30;53.20;;;;;;4957967;29;20110;-81
2021/07/12 13:44:41;;;;;;;2.13;1.15;;;36.80;54.00;;;;;;4957478;29;20102;-80
2021/07/12 13:47:07;;;;;;;3.95;0.98;;;35.90;55.80;;;;;;4955813;29;20023;-81
2021/07/12 13:49:32;;;;;;;1.80;1.23;;;35.70;56.80;;;;;;4938877;29;20086;-80
2021/07/12 13:51:58;;;;;;;3.72;1.10;;;36.10;56.40;;;;;;4960388;29;20023;-79
2021/07/12 13:54:23;;;;;;;2.88;1.02;;;37.30;54.90;;;;;;4958752;29;20035;-79
2021/07/12 13:56:49;;;;;;;2.75;1.30;;;38.50;54.30;;;;;;4957203;28;20043;-82
2021/07/12 13:59:15;;;;;;;3.95;1.00;;;38.60;52.90;;;;;;4954744;28;20445;-81
2021/07/12 14:01:40;;;;;;;2.95;1.40;;;37.20;54.30;;;;;;4957382;29;20039;-82
2021/07/12 14:04:06;;;;;;;1.58;1.00;;;36.20;55.80;;;;;;4956504;29;20035;-81
2021/07/12 14:06:31;;;;;;;1.92;1.00;;;35.80;56.30;;;;;;4956528;29;20489;-81
2021/07/12 14:08:57;;;;;;;3.08;1.20;;;36.60;55.40;;;;;;4954353;29;20035;-82
2021/07/12 14:11:22;;;;;;;2.47;1.15;;;36.80;55.30;;;;;;4956846;29;20489;-81
2021/07/12 14:13:48;;;;;;;3.45;1.00;;;36.80;54.50;;;;;;4939585;29;20034;-81